sensor_id;sensor_type;location;lat;lon;timestamp;P1;durP1;ratioP1;P2;durP2;ratioP2
45043;SDS011;30784;48.490;9.688;2022-12-29T00:00:11;3.00;;;1.10;;
45043;SDS011;30784;48.490;9.688;2022-12-29T00:02:37;4.07;;;1.10;;
45043;SDS011;30784;48.490;9.688;2022-12-29T00:05:06;4.45;;;1.23;;
45043;SDS011;30784;48.490;9.688;2022-12-29T00:07:32;3.85;;;1.00;;
45043;SDS011;30784;48.490;9.688;2022-12-29T00:09:58;3.72;;;1.10;;
45043;SDS011;30784;48.490;9.688;2022-12-29T00:12:23;3.20;;;1.00;;
45043;SDS011;30784;48.490;9.688;2022-12-29T00:15:15;4.72;;;1.20;;
45043;SDS011;30784;48.490;9.688;2022-12-29T00:18:01;3.83;;;1.40;;
45043;SDS011;30784;48.490;9.688;2022-12-29T00:20:27;5.82;;;1.70;;
45043;SDS011;30784;48.490;9.688;2022-12-29T00:23:11;4.85;;;1.27;;
45043;SDS011;30784;48.490;9.688;2022-12-29T00:25:56;3.08;;;1.27;;
45043;SDS011;30784;48.490;9.688;2022-12-29T00:28:50;3.85;;;1.00;;
45043;SDS011;30784;48.490;9.688;2022-12-29T00:31:35;3.30;;;1.08;;
45043;SDS011;30784;48.490;9.688;2022-12-29T00:34:19;3.15;;;1.10;;
45043;SDS011;30784;48.490;9.688;2022-12-29T00:37:03;6.40;;;1.63;;
45043;SDS011;30784;48.490;9.688;2022-12-29T00:39:28;6.70;;;2.38;;
45043;SDS011;30784;48.490;9.688;2022-12-29T00:42:12;6.10;;;1.60;;
45043;SDS011;30784;48.490;9.688;2022-12-29T00:44:57;4.82;;;1.13;;
45043;SDS011;30784;48.490;9.688;2022-12-29T00:47:22;3.33;;;1.10;;
45043;SDS011;30784;48.490;9.688;2022-12-29T00:49:48;4.53;;;1.30;;
45043;SDS011;30784;48.490;9.688;2022-12-29T00:52:13;3.88;;;1.20;;
45043;SDS011;30784;48.490;9.688;2022-12-29T00:54:39;4.00;;;1.10;;
45043;SDS011;30784;48.490;9.688;2022-12-29T00:57:06;4.07;;;1.25;;
45043;SDS011;30784;48.490;9.688;2022-12-29T00:59:37;4.35;;;1.20;;
45043;SDS011;30784;48.490;9.688;2022-12-29T01:02:04;4.60;;;1.30;;
45043;SDS011;30784;48.490;9.688;2022-12-29T01:04:30;4.38;;;1.38;;
45043;SDS011;30784;48.490;9.688;2022-12-29T01:06:55;4.47;;;1.40;;
45043;SDS011;30784;48.490;9.688;2022-12-29T01:09:21;5.10;;;1.40;;
45043;SDS011;30784;48.490;9.688;2022-12-29T01:12:06;4.00;;;1.15;;
45043;SDS011;30784;48.490;9.688;2022-12-29T01:14:32;4.20;;;1.20;;
45043;SDS011;30784;48.490;9.688;2022-12-29T01:16:58;6.53;;;1.60;;
45043;SDS011;30784;48.490;9.688;2022-12-29T01:19:24;5.10;;;1.35;;
45043;SDS011;30784;48.490;9.688;2022-12-29T01:21:50;5.75;;;1.42;;
45043;SDS011;30784;48.490;9.688;2022-12-29T01:24:16;5.82;;;1.40;;
45043;SDS011;30784;48.490;9.688;2022-12-29T01:26:42;4.68;;;1.33;;
45043;SDS011;30784;48.490;9.688;2022-12-29T01:29:08;5.28;;;1.50;;
45043;SDS011;30784;48.490;9.688;2022-12-29T01:31:34;3.97;;;1.30;;
45043;SDS011;30784;48.490;9.688;2022-12-29T01:34:00;4.45;;;1.33;;
45043;SDS011;30784;48.490;9.688;2022-12-29T01:36:26;4.78;;;1.30;;
45043;SDS011;30784;48.490;9.688;2022-12-29T01:38:51;5.25;;;1.42;;
45043;SDS011;30784;48.490;9.688;2022-12-29T01:41:17;4.70;;;1.40;;
45043;SDS011;30784;48.490;9.688;2022-12-29T01:43:50;6.03;;;1.45;;
45043;SDS011;30784;48.490;9.688;2022-12-29T01:48:53;9.07;;;3.75;;
45043;SDS011;30784;48.490;9.688;2022-12-29T01:51:24;5.65;;;1.65;;
45043;SDS011;30784;48.490;9.688;2022-12-29T01:53:53;3.90;;;1.20;;
45043;SDS011;30784;48.490;9.688;2022-12-29T01:56:21;4.68;;;1.48;;
45043;SDS011;30784;48.490;9.688;2022-12-29T01:58:48;4.40;;;1.35;;
45043;SDS011;30784;48.490;9.688;2022-12-29T02:01:17;4.03;;;1.20;;
45043;SDS011;30784;48.490;9.688;2022-12-29T02:03:45;4.63;;;1.35;;
45043;SDS011;30784;48.490;9.688;2022-12-29T02:06:14;3.75;;;1.20;;
45043;SDS011;30784;48.490;9.688;2022-12-29T02:08:49;4.03;;;1.10;;
45043;SDS011;30784;48.490;9.688;2022-12-29T02:11:17;3.70;;;1.20;;
45043;SDS011;30784;48.490;9.688;2022-12-29T02:13:44;3.95;;;1.15;;
45043;SDS011;30784;48.490;9.688;2022-12-29T02:21:56;3.88;;;1.02;;
45043;SDS011;30784;48.490;9.688;2022-12-29T02:27:24;3.80;;;1.20;;
45043;SDS011;30784;48.490;9.688;2022-12-29T02:32:52;3.95;;;1.27;;
45043;SDS011;30784;48.490;9.688;2022-12-29T02:35:29;3.88;;;1.30;;
45043;SDS011;30784;48.490;9.688;2022-12-29T02:41:16;3.08;;;1.00;;
45043;SDS011;30784;48.490;9.688;2022-12-29T02:43:55;4.75;;;1.20;;
45043;SDS011;30784;48.490;9.688;2022-12-29T02:49:22;4.35;;;1.25;;
45043;SDS011;30784;48.490;9.688;2022-12-29T02:52:14;3.72;;;1.10;;
45043;SDS011;30784;48.490;9.688;2022-12-29T02:54:42;4.78;;;1.23;;
45043;SDS011;30784;48.490;9.688;2022-12-29T02:57:10;3.13;;;1.08;;
45043;SDS011;30784;48.490;9.688;2022-12-29T02:59:39;3.53;;;1.02;;
45043;SDS011;30784;48.490;9.688;2022-12-29T03:02:16;4.13;;;1.13;;
45043;SDS011;30784;48.490;9.688;2022-12-29T03:05:14;3.40;;;1.00;;
45043;SDS011;30784;48.490;9.688;2022-12-29T03:08:07;3.47;;;1.10;;
45043;SDS011;30784;48.490;9.688;2022-12-29T03:10:58;4.97;;;1.10;;
45043;SDS011;30784;48.490;9.688;2022-12-29T03:13:32;4.22;;;1.00;;
45043;SDS011;30784;48.490;9.688;2022-12-29T03:16:42;4.45;;;1.10;;
45043;SDS011;30784;48.490;9.688;2022-12-29T03:19:21;5.60;;;1.13;;
45043;SDS011;30784;48.490;9.688;2022-12-29T03:21:55;3.22;;;1.05;;
45043;SDS011;30784;48.490;9.688;2022-12-29T03:24:48;4.45;;;1.17;;
45043;SDS011;30784;48.490;9.688;2022-12-29T03:27:22;6.35;;;1.23;;
45043;SDS011;30784;48.490;9.688;2022-12-29T03:29:56;6.30;;;1.40;;
45043;SDS011;30784;48.490;9.688;2022-12-29T03:32:31;4.22;;;1.23;;
45043;SDS011;30784;48.490;9.688;2022-12-29T03:35:00;3.20;;;1.00;;
45043;SDS011;30784;48.490;9.688;2022-12-29T03:37:28;2.97;;;1.13;;
45043;SDS011;30784;48.490;9.688;2022-12-29T03:39:59;4.30;;;1.27;;
45043;SDS011;30784;48.490;9.688;2022-12-29T03:42:26;3.58;;;1.17;;
45043;SDS011;30784;48.490;9.688;2022-12-29T03:44:55;4.35;;;1.13;;
45043;SDS011;30784;48.490;9.688;2022-12-29T03:47:22;5.15;;;1.30;;
45043;SDS011;30784;48.490;9.688;2022-12-29T03:49:48;4.93;;;1.50;;
45043;SDS011;30784;48.490;9.688;2022-12-29T03:52:14;3.50;;;1.10;;
45043;SDS011;30784;48.490;9.688;2022-12-29T03:54:40;4.05;;;1.10;;
45043;SDS011;30784;48.490;9.688;2022-12-29T03:57:06;4.95;;;1.20;;
45043;SDS011;30784;48.490;9.688;2022-12-29T03:59:31;3.00;;;0.98;;
45043;SDS011;30784;48.490;9.688;2022-12-29T04:01:57;3.58;;;1.00;;
45043;SDS011;30784;48.490;9.688;2022-12-29T04:04:22;5.05;;;1.35;;
45043;SDS011;30784;48.490;9.688;2022-12-29T04:06:48;3.72;;;1.10;;
45043;SDS011;30784;48.490;9.688;2022-12-29T04:09:13;3.45;;;1.10;;
45043;SDS011;30784;48.490;9.688;2022-12-29T04:11:39;4.00;;;1.10;;
45043;SDS011;30784;48.490;9.688;2022-12-29T04:14:04;3.22;;;1.10;;
45043;SDS011;30784;48.490;9.688;2022-12-29T04:16:30;3.58;;;1.00;;
45043;SDS011;30784;48.490;9.688;2022-12-29T04:18:56;3.50;;;1.13;;
45043;SDS011;30784;48.490;9.688;2022-12-29T04:21:21;4.63;;;1.10;;
45043;SDS011;30784;48.490;9.688;2022-12-29T04:23:47;4.13;;;1.17;;
45043;SDS011;30784;48.490;9.688;2022-12-29T04:26:12;4.05;;;1.10;;
45043;SDS011;30784;48.490;9.688;2022-12-29T04:28:38;3.22;;;0.93;;
45043;SDS011;30784;48.490;9.688;2022-12-29T04:31:04;4.03;;;1.17;;
45043;SDS011;30784;48.490;9.688;2022-12-29T04:33:30;3.90;;;1.10;;
45043;SDS011;30784;48.490;9.688;2022-12-29T04:35:55;4.97;;;1.20;;
45043;SDS011;30784;48.490;9.688;2022-12-29T04:38:22;3.85;;;1.10;;
45043;SDS011;30784;48.490;9.688;2022-12-29T04:40:49;4.88;;;1.30;;
45043;SDS011;30784;48.490;9.688;2022-12-29T04:43:15;3.03;;;0.93;;
45043;SDS011;30784;48.490;9.688;2022-12-29T04:45:47;3.55;;;1.10;;
45043;SDS011;30784;48.490;9.688;2022-12-29T04:48:13;4.10;;;1.00;;
45043;SDS011;30784;48.490;9.688;2022-12-29T04:50:39;3.42;;;1.00;;
45043;SDS011;30784;48.490;9.688;2022-12-29T04:53:05;5.15;;;1.20;;
45043;SDS011;30784;48.490;9.688;2022-12-29T04:55:31;6.15;;;1.55;;
45043;SDS011;30784;48.490;9.688;2022-12-29T04:57:56;4.35;;;1.30;;
45043;SDS011;30784;48.490;9.688;2022-12-29T05:00:22;4.75;;;1.10;;
45043;SDS011;30784;48.490;9.688;2022-12-29T05:02:47;3.35;;;1.00;;
45043;SDS011;30784;48.490;9.688;2022-12-29T05:05:13;4.15;;;0.98;;
45043;SDS011;30784;48.490;9.688;2022-12-29T05:07:39;4.18;;;1.20;;
45043;SDS011;30784;48.490;9.688;2022-12-29T05:10:05;3.80;;;0.93;;
45043;SDS011;30784;48.490;9.688;2022-12-29T05:12:32;4.10;;;1.20;;
45043;SDS011;30784;48.490;9.688;2022-12-29T05:14:58;4.57;;;1.10;;
45043;SDS011;30784;48.490;9.688;2022-12-29T05:17:24;4.28;;;1.20;;
45043;SDS011;30784;48.490;9.688;2022-12-29T05:19:50;4.80;;;1.30;;
45043;SDS011;30784;48.490;9.688;2022-12-29T05:22:16;3.92;;;1.13;;
45043;SDS011;30784;48.490;9.688;2022-12-29T05:24:41;4.05;;;1.10;;
45043;SDS011;30784;48.490;9.688;2022-12-29T05:27:07;2.75;;;0.90;;
45043;SDS011;30784;48.490;9.688;2022-12-29T05:29:32;3.78;;;1.10;;
45043;SDS011;30784;48.490;9.688;2022-12-29T05:31:58;5.38;;;1.30;;
45043;SDS011;30784;48.490;9.688;2022-12-29T05:34:23;3.78;;;1.02;;
45043;SDS011;30784;48.490;9.688;2022-12-29T05:36:49;4.53;;;1.15;;
45043;SDS011;30784;48.490;9.688;2022-12-29T05:39:14;4.88;;;1.13;;
45043;SDS011;30784;48.490;9.688;2022-12-29T05:41:40;3.63;;;0.93;;
45043;SDS011;30784;48.490;9.688;2022-12-29T05:44:06;3.85;;;1.05;;
45043;SDS011;30784;48.490;9.688;2022-12-29T05:46:31;3.88;;;1.00;;
45043;SDS011;30784;48.490;9.688;2022-12-29T05:48:57;4.72;;;1.10;;
45043;SDS011;30784;48.490;9.688;2022-12-29T05:51:22;4.20;;;1.10;;
45043;SDS011;30784;48.490;9.688;2022-12-29T05:53:48;3.38;;;1.10;;
45043;SDS011;30784;48.490;9.688;2022-12-29T05:56:14;4.30;;;1.20;;
45043;SDS011;30784;48.490;9.688;2022-12-29T05:58:39;4.45;;;0.98;;
45043;SDS011;30784;48.490;9.688;2022-12-29T06:01:05;3.13;;;1.05;;
45043;SDS011;30784;48.490;9.688;2022-12-29T06:03:30;6.25;;;1.45;;
45043;SDS011;30784;48.490;9.688;2022-12-29T06:05:56;3.83;;;0.90;;
45043;SDS011;30784;48.490;9.688;2022-12-29T06:08:21;3.58;;;1.20;;
45043;SDS011;30784;48.490;9.688;2022-12-29T06:10:47;3.60;;;1.20;;
45043;SDS011;30784;48.490;9.688;2022-12-29T06:13:12;3.55;;;1.05;;
45043;SDS011;30784;48.490;9.688;2022-12-29T06:15:38;3.28;;;1.08;;
45043;SDS011;30784;48.490;9.688;2022-12-29T06:18:04;4.22;;;1.08;;
45043;SDS011;30784;48.490;9.688;2022-12-29T06:20:29;5.07;;;1.30;;
45043;SDS011;30784;48.490;9.688;2022-12-29T06:22:55;4.75;;;0.90;;
45043;SDS011;30784;48.490;9.688;2022-12-29T06:25:20;4.70;;;1.20;;
45043;SDS011;30784;48.490;9.688;2022-12-29T06:27:46;5.18;;;1.30;;
45043;SDS011;30784;48.490;9.688;2022-12-29T06:30:11;4.95;;;1.40;;
45043;SDS011;30784;48.490;9.688;2022-12-29T06:32:37;7.20;;;1.67;;
45043;SDS011;30784;48.490;9.688;2022-12-29T06:35:03;6.32;;;1.95;;
45043;SDS011;30784;48.490;9.688;2022-12-29T06:37:31;7.25;;;2.40;;
45043;SDS011;30784;48.490;9.688;2022-12-29T06:39:56;7.18;;;2.22;;
45043;SDS011;30784;48.490;9.688;2022-12-29T06:42:22;7.65;;;2.65;;
45043;SDS011;30784;48.490;9.688;2022-12-29T06:44:48;6.80;;;1.85;;
45043;SDS011;30784;48.490;9.688;2022-12-29T06:47:13;8.20;;;2.00;;
45043;SDS011;30784;48.490;9.688;2022-12-29T06:49:39;5.78;;;1.75;;
45043;SDS011;30784;48.490;9.688;2022-12-29T06:52:04;6.78;;;1.85;;
45043;SDS011;30784;48.490;9.688;2022-12-29T06:54:30;5.45;;;1.45;;
45043;SDS011;30784;48.490;9.688;2022-12-29T06:56:56;5.78;;;1.60;;
45043;SDS011;30784;48.490;9.688;2022-12-29T06:59:22;4.85;;;1.38;;
45043;SDS011;30784;48.490;9.688;2022-12-29T07:01:47;7.45;;;1.67;;
45043;SDS011;30784;48.490;9.688;2022-12-29T07:04:13;4.82;;;1.20;;
45043;SDS011;30784;48.490;9.688;2022-12-29T07:06:39;4.95;;;1.10;;
45043;SDS011;30784;48.490;9.688;2022-12-29T07:09:05;5.00;;;1.17;;
45043;SDS011;30784;48.490;9.688;2022-12-29T07:11:32;6.93;;;1.38;;
45043;SDS011;30784;48.490;9.688;2022-12-29T07:13:58;5.10;;;1.52;;
45043;SDS011;30784;48.490;9.688;2022-12-29T07:16:24;6.07;;;1.45;;
45043;SDS011;30784;48.490;9.688;2022-12-29T07:18:50;3.45;;;1.20;;
45043;SDS011;30784;48.490;9.688;2022-12-29T07:21:16;4.25;;;1.27;;
45043;SDS011;30784;48.490;9.688;2022-12-29T07:23:42;7.25;;;1.55;;
45043;SDS011;30784;48.490;9.688;2022-12-29T07:26:08;5.07;;;1.27;;
45043;SDS011;30784;48.490;9.688;2022-12-29T07:28:36;6.20;;;1.85;;
45043;SDS011;30784;48.490;9.688;2022-12-29T07:31:03;6.03;;;1.85;;
45043;SDS011;30784;48.490;9.688;2022-12-29T07:33:29;7.50;;;2.50;;
45043;SDS011;30784;48.490;9.688;2022-12-29T07:35:55;10.30;;;2.38;;
45043;SDS011;30784;48.490;9.688;2022-12-29T07:38:21;9.18;;;3.20;;
45043;SDS011;30784;48.490;9.688;2022-12-29T07:40:47;9.38;;;3.35;;
45043;SDS011;30784;48.490;9.688;2022-12-29T07:43:12;8.75;;;3.22;;
45043;SDS011;30784;48.490;9.688;2022-12-29T07:45:38;6.25;;;2.03;;
45043;SDS011;30784;48.490;9.688;2022-12-29T07:48:04;5.95;;;1.83;;
45043;SDS011;30784;48.490;9.688;2022-12-29T07:50:32;6.22;;;2.47;;
45043;SDS011;30784;48.490;9.688;2022-12-29T07:52:58;8.85;;;2.72;;
45043;SDS011;30784;48.490;9.688;2022-12-29T07:55:24;9.10;;;2.30;;
45043;SDS011;30784;48.490;9.688;2022-12-29T07:57:49;5.68;;;1.83;;
45043;SDS011;30784;48.490;9.688;2022-12-29T08:00:18;6.07;;;1.90;;
45043;SDS011;30784;48.490;9.688;2022-12-29T08:02:44;8.88;;;2.17;;
45043;SDS011;30784;48.490;9.688;2022-12-29T08:05:09;7.95;;;2.90;;
45043;SDS011;30784;48.490;9.688;2022-12-29T08:07:35;8.00;;;2.58;;
45043;SDS011;30784;48.490;9.688;2022-12-29T08:10:00;8.27;;;2.80;;
45043;SDS011;30784;48.490;9.688;2022-12-29T08:12:26;11.48;;;5.45;;
45043;SDS011;30784;48.490;9.688;2022-12-29T08:14:52;10.23;;;3.95;;
45043;SDS011;30784;48.490;9.688;2022-12-29T08:17:17;9.07;;;3.47;;
45043;SDS011;30784;48.490;9.688;2022-12-29T08:19:43;7.88;;;2.83;;
45043;SDS011;30784;48.490;9.688;2022-12-29T08:22:08;7.47;;;2.97;;
45043;SDS011;30784;48.490;9.688;2022-12-29T08:24:34;8.93;;;3.42;;
45043;SDS011;30784;48.490;9.688;2022-12-29T08:27:00;8.50;;;3.63;;
45043;SDS011;30784;48.490;9.688;2022-12-29T08:29:25;8.18;;;2.60;;
45043;SDS011;30784;48.490;9.688;2022-12-29T08:31:51;7.95;;;3.38;;
45043;SDS011;30784;48.490;9.688;2022-12-29T08:34:17;8.00;;;3.83;;
45043;SDS011;30784;48.490;9.688;2022-12-29T08:36:42;7.75;;;2.47;;
45043;SDS011;30784;48.490;9.688;2022-12-29T08:39:08;6.15;;;2.25;;
45043;SDS011;30784;48.490;9.688;2022-12-29T08:41:34;8.05;;;2.33;;
45043;SDS011;30784;48.490;9.688;2022-12-29T08:43:59;7.20;;;2.42;;
45043;SDS011;30784;48.490;9.688;2022-12-29T08:46:25;7.97;;;2.42;;
45043;SDS011;30784;48.490;9.688;2022-12-29T08:48:50;8.55;;;2.25;;
45043;SDS011;30784;48.490;9.688;2022-12-29T08:51:16;7.20;;;2.30;;
45043;SDS011;30784;48.490;9.688;2022-12-29T08:53:42;6.40;;;1.83;;
45043;SDS011;30784;48.490;9.688;2022-12-29T08:56:08;6.97;;;2.28;;
45043;SDS011;30784;48.490;9.688;2022-12-29T08:58:34;8.30;;;2.47;;
45043;SDS011;30784;48.490;9.688;2022-12-29T09:00:59;6.55;;;2.10;;
45043;SDS011;30784;48.490;9.688;2022-12-29T09:03:25;10.27;;;2.63;;
45043;SDS011;30784;48.490;9.688;2022-12-29T09:05:52;6.30;;;2.30;;
45043;SDS011;30784;48.490;9.688;2022-12-29T09:08:18;7.82;;;2.70;;
45043;SDS011;30784;48.490;9.688;2022-12-29T09:10:44;9.25;;;2.88;;
45043;SDS011;30784;48.490;9.688;2022-12-29T09:13:11;9.07;;;3.00;;
45043;SDS011;30784;48.490;9.688;2022-12-29T09:15:37;7.30;;;2.40;;
45043;SDS011;30784;48.490;9.688;2022-12-29T09:18:03;8.68;;;2.47;;
45043;SDS011;30784;48.490;9.688;2022-12-29T09:20:29;8.45;;;2.67;;
45043;SDS011;30784;48.490;9.688;2022-12-29T09:22:54;7.38;;;2.60;;
45043;SDS011;30784;48.490;9.688;2022-12-29T09:25:20;8.55;;;2.60;;
45043;SDS011;30784;48.490;9.688;2022-12-29T09:27:49;5.63;;;2.05;;
45043;SDS011;30784;48.490;9.688;2022-12-29T09:30:18;6.03;;;2.15;;
45043;SDS011;30784;48.490;9.688;2022-12-29T09:32:45;6.40;;;2.20;;
45043;SDS011;30784;48.490;9.688;2022-12-29T09:35:12;9.70;;;2.47;;
45043;SDS011;30784;48.490;9.688;2022-12-29T09:37:38;7.82;;;2.30;;
45043;SDS011;30784;48.490;9.688;2022-12-29T09:40:04;5.63;;;1.90;;
45043;SDS011;30784;48.490;9.688;2022-12-29T09:45:24;5.75;;;2.00;;
45043;SDS011;30784;48.490;9.688;2022-12-29T09:47:54;8.80;;;2.67;;
45043;SDS011;30784;48.490;9.688;2022-12-29T09:50:22;7.13;;;2.60;;
45043;SDS011;30784;48.490;9.688;2022-12-29T09:55:23;7.60;;;1.80;;
45043;SDS011;30784;48.490;9.688;2022-12-29T09:57:58;5.60;;;1.80;;
45043;SDS011;30784;48.490;9.688;2022-12-29T10:00:37;7.97;;;2.50;;
45043;SDS011;30784;48.490;9.688;2022-12-29T10:03:14;7.00;;;2.00;;
45043;SDS011;30784;48.490;9.688;2022-12-29T10:06:04;7.15;;;2.70;;
45043;SDS011;30784;48.490;9.688;2022-12-29T10:09:11;5.68;;;1.70;;
45043;SDS011;30784;48.490;9.688;2022-12-29T10:12:11;7.47;;;2.20;;
45043;SDS011;30784;48.490;9.688;2022-12-29T10:15:02;10.15;;;4.00;;
45043;SDS011;30784;48.490;9.688;2022-12-29T10:20:44;7.40;;;2.63;;
45043;SDS011;30784;48.490;9.688;2022-12-29T10:25:56;4.85;;;1.60;;
45043;SDS011;30784;48.490;9.688;2022-12-29T10:30:56;4.93;;;1.50;;
45043;SDS011;30784;48.490;9.688;2022-12-29T10:33:25;7.28;;;1.50;;
45043;SDS011;30784;48.490;9.688;2022-12-29T10:35:56;7.13;;;1.90;;
45043;SDS011;30784;48.490;9.688;2022-12-29T10:38:27;5.65;;;1.80;;
45043;SDS011;30784;48.490;9.688;2022-12-29T10:41:03;5.68;;;1.63;;
45043;SDS011;30784;48.490;9.688;2022-12-29T10:43:43;5.95;;;1.50;;
45043;SDS011;30784;48.490;9.688;2022-12-29T10:46:16;5.40;;;1.70;;
45043;SDS011;30784;48.490;9.688;2022-12-29T10:49:00;6.90;;;1.93;;
45043;SDS011;30784;48.490;9.688;2022-12-29T10:53:59;4.50;;;1.40;;
45043;SDS011;30784;48.490;9.688;2022-12-29T10:56:36;4.68;;;1.20;;
45043;SDS011;30784;48.490;9.688;2022-12-29T10:59:22;6.00;;;2.00;;
45043;SDS011;30784;48.490;9.688;2022-12-29T11:02:40;6.03;;;1.90;;
45043;SDS011;30784;48.490;9.688;2022-12-29T11:07:22;6.32;;;1.30;;
45043;SDS011;30784;48.490;9.688;2022-12-29T11:09:48;3.90;;;1.20;;
45043;SDS011;30784;48.490;9.688;2022-12-29T11:12:18;4.07;;;1.13;;
45043;SDS011;30784;48.490;9.688;2022-12-29T11:15:00;7.57;;;2.17;;
45043;SDS011;30784;48.490;9.688;2022-12-29T11:17:26;6.60;;;1.75;;
45043;SDS011;30784;48.490;9.688;2022-12-29T11:19:52;5.65;;;1.92;;
45043;SDS011;30784;48.490;9.688;2022-12-29T11:22:21;6.15;;;1.70;;
45043;SDS011;30784;48.490;9.688;2022-12-29T11:24:49;6.72;;;1.90;;
45043;SDS011;30784;48.490;9.688;2022-12-29T11:27:20;5.22;;;1.50;;
45043;SDS011;30784;48.490;9.688;2022-12-29T11:29:51;5.55;;;1.50;;
45043;SDS011;30784;48.490;9.688;2022-12-29T11:32:22;5.10;;;1.40;;
45043;SDS011;30784;48.490;9.688;2022-12-29T11:34:49;5.22;;;1.50;;
45043;SDS011;30784;48.490;9.688;2022-12-29T11:37:16;5.85;;;1.38;;
45043;SDS011;30784;48.490;9.688;2022-12-29T11:42:16;4.32;;;1.20;;
45043;SDS011;30784;48.490;9.688;2022-12-29T11:44:45;3.92;;;1.10;;
45043;SDS011;30784;48.490;9.688;2022-12-29T11:47:26;5.00;;;1.40;;
45043;SDS011;30784;48.490;9.688;2022-12-29T11:49:56;6.03;;;1.50;;
45043;SDS011;30784;48.490;9.688;2022-12-29T11:52:24;7.43;;;1.70;;
45043;SDS011;30784;48.490;9.688;2022-12-29T11:54:53;3.28;;;1.13;;
45043;SDS011;30784;48.490;9.688;2022-12-29T11:57:21;4.10;;;1.30;;
45043;SDS011;30784;48.490;9.688;2022-12-29T11:59:49;4.15;;;1.35;;
45043;SDS011;30784;48.490;9.688;2022-12-29T12:04:45;5.95;;;1.17;;
45043;SDS011;30784;48.490;9.688;2022-12-29T12:09:45;3.65;;;1.10;;
45043;SDS011;30784;48.490;9.688;2022-12-29T12:12:21;6.75;;;1.45;;
45043;SDS011;30784;48.490;9.688;2022-12-29T12:14:55;4.32;;;1.25;;
45043;SDS011;30784;48.490;9.688;2022-12-29T12:17:47;4.50;;;1.27;;
45043;SDS011;30784;48.490;9.688;2022-12-29T12:25:39;6.20;;;1.50;;
45043;SDS011;30784;48.490;9.688;2022-12-29T12:28:20;8.25;;;2.65;;
45043;SDS011;30784;48.490;9.688;2022-12-29T12:30:54;7.82;;;2.70;;
45043;SDS011;30784;48.490;9.688;2022-12-29T12:33:24;7.15;;;1.98;;
45043;SDS011;30784;48.490;9.688;2022-12-29T12:41:11;5.78;;;1.60;;
45043;SDS011;30784;48.490;9.688;2022-12-29T12:43:55;5.13;;;1.67;;
45043;SDS011;30784;48.490;9.688;2022-12-29T12:51:55;5.28;;;1.50;;
45043;SDS011;30784;48.490;9.688;2022-12-29T13:14:36;5.75;;;2.00;;
45043;SDS011;30784;48.490;9.688;2022-12-29T13:17:36;7.38;;;1.80;;
45043;SDS011;30784;48.490;9.688;2022-12-29T13:20:19;4.95;;;1.40;;
45043;SDS011;30784;48.490;9.688;2022-12-29T13:23:13;5.30;;;1.33;;
45043;SDS011;30784;48.490;9.688;2022-12-29T13:31:13;6.63;;;2.42;;
45043;SDS011;30784;48.490;9.688;2022-12-29T13:33:51;6.65;;;2.40;;
45043;SDS011;30784;48.490;9.688;2022-12-29T13:36:40;7.22;;;2.60;;
45043;SDS011;30784;48.490;9.688;2022-12-29T13:44:32;6.40;;;2.40;;
45043;SDS011;30784;48.490;9.688;2022-12-29T13:46:59;7.10;;;2.80;;
45043;SDS011;30784;48.490;9.688;2022-12-29T13:49:29;5.95;;;2.08;;
45043;SDS011;30784;48.490;9.688;2022-12-29T13:51:58;7.28;;;2.90;;
45043;SDS011;30784;48.490;9.688;2022-12-29T13:54:46;9.13;;;4.40;;
45043;SDS011;30784;48.490;9.688;2022-12-29T14:02:41;7.30;;;2.30;;
45043;SDS011;30784;48.490;9.688;2022-12-29T14:07:45;6.45;;;2.28;;
45043;SDS011;30784;48.490;9.688;2022-12-29T14:15:52;5.93;;;2.10;;
45043;SDS011;30784;48.490;9.688;2022-12-29T14:18:21;5.90;;;1.90;;
45043;SDS011;30784;48.490;9.688;2022-12-29T14:20:56;4.90;;;1.58;;
45043;SDS011;30784;48.490;9.688;2022-12-29T14:28:32;4.97;;;1.40;;
45043;SDS011;30784;48.490;9.688;2022-12-29T14:33:41;5.60;;;1.50;;
45043;SDS011;30784;48.490;9.688;2022-12-29T14:36:33;8.60;;;1.50;;
45043;SDS011;30784;48.490;9.688;2022-12-29T14:38:59;5.75;;;1.38;;
45043;SDS011;30784;48.490;9.688;2022-12-29T14:49:20;3.38;;;1.10;;
45043;SDS011;30784;48.490;9.688;2022-12-29T14:51:48;4.05;;;1.15;;
45043;SDS011;30784;48.490;9.688;2022-12-29T14:57:02;4.93;;;1.23;;
45043;SDS011;30784;48.490;9.688;2022-12-29T14:59:30;3.17;;;1.27;;
45043;SDS011;30784;48.490;9.688;2022-12-29T15:01:58;5.40;;;1.45;;
45043;SDS011;30784;48.490;9.688;2022-12-29T15:04:31;3.83;;;1.20;;
45043;SDS011;30784;48.490;9.688;2022-12-29T15:06:59;5.07;;;1.08;;
45043;SDS011;30784;48.490;9.688;2022-12-29T15:09:40;5.35;;;1.17;;
45043;SDS011;30784;48.490;9.688;2022-12-29T15:12:18;3.72;;;1.20;;
45043;SDS011;30784;48.490;9.688;2022-12-29T15:15:26;4.07;;;1.40;;
45043;SDS011;30784;48.490;9.688;2022-12-29T15:17:54;3.40;;;1.10;;
45043;SDS011;30784;48.490;9.688;2022-12-29T15:20:25;4.22;;;1.10;;
45043;SDS011;30784;48.490;9.688;2022-12-29T15:23:17;3.67;;;1.10;;
45043;SDS011;30784;48.490;9.688;2022-12-29T15:25:50;3.53;;;0.95;;
45043;SDS011;30784;48.490;9.688;2022-12-29T15:28:48;3.95;;;1.15;;
45043;SDS011;30784;48.490;9.688;2022-12-29T15:31:19;6.50;;;1.80;;
45043;SDS011;30784;48.490;9.688;2022-12-29T15:33:46;4.67;;;1.47;;
45043;SDS011;30784;48.490;9.688;2022-12-29T15:36:23;4.60;;;1.30;;
45043;SDS011;30784;48.490;9.688;2022-12-29T15:38:51;7.25;;;1.70;;
45043;SDS011;30784;48.490;9.688;2022-12-29T15:46:17;6.82;;;1.70;;
45043;SDS011;30784;48.490;9.688;2022-12-29T15:48:43;6.07;;;1.60;;
45043;SDS011;30784;48.490;9.688;2022-12-29T15:51:19;5.85;;;2.00;;
45043;SDS011;30784;48.490;9.688;2022-12-29T15:53:50;5.78;;;2.00;;
45043;SDS011;30784;48.490;9.688;2022-12-29T15:56:17;7.07;;;2.20;;
45043;SDS011;30784;48.490;9.688;2022-12-29T15:58:47;6.90;;;1.63;;
45043;SDS011;30784;48.490;9.688;2022-12-29T16:01:32;4.97;;;1.60;;
45043;SDS011;30784;48.490;9.688;2022-12-29T16:03:59;3.80;;;1.25;;
45043;SDS011;30784;48.490;9.688;2022-12-29T16:06:33;5.65;;;1.48;;
45043;SDS011;30784;48.490;9.688;2022-12-29T16:11:37;6.38;;;1.70;;
45043;SDS011;30784;48.490;9.688;2022-12-29T16:14:08;5.20;;;1.65;;
45043;SDS011;30784;48.490;9.688;2022-12-29T16:16:40;5.28;;;1.40;;
45043;SDS011;30784;48.490;9.688;2022-12-29T16:21:55;5.90;;;1.70;;
45043;SDS011;30784;48.490;9.688;2022-12-29T16:24:24;5.32;;;1.50;;
45043;SDS011;30784;48.490;9.688;2022-12-29T16:26:55;5.38;;;1.90;;
45043;SDS011;30784;48.490;9.688;2022-12-29T16:29:25;4.80;;;1.50;;
45043;SDS011;30784;48.490;9.688;2022-12-29T16:31:55;6.07;;;1.50;;
45043;SDS011;30784;48.490;9.688;2022-12-29T16:37:03;3.55;;;1.20;;
45043;SDS011;30784;48.490;9.688;2022-12-29T16:39:49;4.40;;;1.30;;
45043;SDS011;30784;48.490;9.688;2022-12-29T16:42:34;4.57;;;1.08;;
45043;SDS011;30784;48.490;9.688;2022-12-29T17:00:31;5.00;;;1.40;;
45043;SDS011;30784;48.490;9.688;2022-12-29T17:03:00;3.88;;;1.10;;
45043;SDS011;30784;48.490;9.688;2022-12-29T17:05:28;4.57;;;1.15;;
45043;SDS011;30784;48.490;9.688;2022-12-29T17:07:53;5.28;;;1.38;;
45043;SDS011;30784;48.490;9.688;2022-12-29T17:10:19;3.35;;;1.10;;
45043;SDS011;30784;48.490;9.688;2022-12-29T17:12:45;4.68;;;1.20;;
45043;SDS011;30784;48.490;9.688;2022-12-29T17:17:55;4.78;;;1.30;;
45043;SDS011;30784;48.490;9.688;2022-12-29T17:20:22;5.18;;;1.40;;
45043;SDS011;30784;48.490;9.688;2022-12-29T17:22:50;6.50;;;1.70;;
45043;SDS011;30784;48.490;9.688;2022-12-29T17:25:19;5.55;;;1.65;;
45043;SDS011;30784;48.490;9.688;2022-12-29T17:27:53;6.43;;;1.60;;
45043;SDS011;30784;48.490;9.688;2022-12-29T17:30:23;6.38;;;1.50;;
45043;SDS011;30784;48.490;9.688;2022-12-29T17:32:51;5.45;;;1.42;;
45043;SDS011;30784;48.490;9.688;2022-12-29T17:35:19;5.45;;;1.95;;
45043;SDS011;30784;48.490;9.688;2022-12-29T17:37:46;5.32;;;1.80;;
45043;SDS011;30784;48.490;9.688;2022-12-29T17:40:14;5.97;;;2.17;;
45043;SDS011;30784;48.490;9.688;2022-12-29T17:42:45;5.75;;;1.60;;